Dart — OUOV2 — position and weather

sailwx.info

Track history (hours):
 
Tides and Currents Weather Stations Pressure Air Temp Water Temp Dewpoint Dewpoint Depression Visibility Wind Speed Wind Dir Waves Ship Positions

Dart

Last reported at 2015-Jul-29 22:10 UTC. Time now 2015-Jul-30 20:16 UTC.
Position N 63°34' E 009°23'.

Length 66 m; draft 4.1 m.

Type: Tanker. MMSI: 219416000.

Date/timePositionNaut miles runAvg speedWind from/ knotsBaromVisibWave heightAir tempDewpointWater temp
2015-Jul-29 22:10N 63°34' E 009°23'6 9.2
2015-Jul-29 21:33N 63°39' E 009°29'1010.0
2015-Jul-29 20:33N 63°49' E 009°35'10 9.8
2015-Jul-29 19:33N 63°57' E 009°47'9 9.2
2015-Jul-29 18:33N 64°05' E 009°57'47 9.4
2015-Jul-29 13:33N 64°44' E 010°58'1010.2
2015-Jul-29 12:34N 64°51' E 011°15'10 9.9
2015-Jul-29 11:33N 64°60' E 011°28'10 9.8
2015-Jul-29 10:33N 65°05' E 011°47'1010.0
2015-Jul-29 09:33N 65°15' E 011°55'8 0.3
2015-Jul-28 07:21N 65°22' E 012°03'810.1
2015-Jul-28 06:33N 65°14' E 011°55'10 9.5
2015-Jul-28 05:33N 65°05' E 011°47'10 9.6
2015-Jul-28 04:33N 64°58' E 011°33'10 9.9
2015-Jul-28 03:33N 64°52' E 011°15'10 9.6
2015-Jul-28 02:33N 64°45' E 010°59'45 9.0
2015-Jul-27 21:32N 64°11' E 009°49'8 8.6
2015-Jul-27 20:33N 64°03' E 009°47'9 9.4
2015-Jul-27 19:34N 63°54' E 009°46'1010.2
2015-Jul-27 18:33N 63°45' E 009°32'10 9.7
2015-Jul-27 17:33N 63°36' E 009°27'5410.6
2015-Jul-27 12:28N 63°09' E 007°43'203 5.8
2015-Jul-26 01:25N 59°56' E 005°29'8 9.2
2015-Jul-26 00:33N 59°48' E 005°33'8 8.4
2015-Jul-25 23:33N 59°41' E 005°24'9 8.6
2015-Jul-25 22:33N 59°34' E 005°14'8 7.9
2015-Jul-25 21:33N 59°26' E 005°14'9 8.6
2015-Jul-25 20:33N 59°18' E 005°20'5 5.3
2015-Jul-25 19:33N 59°13' E 005°21'8 8.3
2015-Jul-25 18:33N 59°06' E 005°31'8 7.9
2015-Jul-25 17:34N 58°60' E 005°40'0 0.0
2015-Jul-25 16:31N 58°60' E 005°40'0 0.0
2015-Jul-25 15:31N 58°60' E 005°40'3 2.9
2015-Jul-25 14:34N 59°02' E 005°36'7 6.5
2015-Jul-25 13:33N 58°55' E 005°36'0 0.0
2015-Jul-25 12:33N 58°55' E 005°36'0 0.0
2015-Jul-25 11:33N 58°55' E 005°36'0 0.0
2015-Jul-25 10:27N 58°55' E 005°36'0 0.0
2015-Jul-25 09:30N 58°55' E 005°36'0 0.0
2015-Jul-25 08:30N 58°55' E 005°36'0 0.0
2015-Jul-25 07:30N 58°55' E 005°36'0 0.0
2015-Jul-25 06:33N 58°55' E 005°36'1 0.6
2015-Jul-25 05:34N 58°56' E 005°35'5 5.4
2015-Jul-25 04:33N 59°01' E 005°32'6 5.5
2015-Jul-25 03:33N 59°06' E 005°30'6 5.8
2015-Jul-25 02:33N 59°10' E 005°21'8 7.8
2015-Jul-25 01:33N 59°18' E 005°20'8 8.2
2015-Jul-25 00:32N 59°25' E 005°14'8 8.2
2015-Jul-24 23:33N 59°33' E 005°13'8 8.2
2015-Jul-24 22:33N 59°40' E 005°22'8 8.1
2015-Jul-24 21:33N 59°46' E 005°33'9 8.7
2015-Jul-24 20:33N 59°55' E 005°30'245 7.1
2015-Jul-23 10:10N 63°34' E 009°22'6 9.1
2015-Jul-23 09:33N 63°37' E 009°32'7 6.9
2015-Jul-23 08:33N 63°37' E 009°48'1010.0
2015-Jul-23 07:34N 63°29' E 009°60'9 9.1
2015-Jul-23 06:33N 63°32' E 010°19'9 9.5
2015-Jul-23 05:33N 63°37' E 010°37'9 9.3
2015-Jul-23 04:33N 63°42' E 010°54'10 9.6
2015-Jul-23 03:33N 63°46' E 011°14'2 0.1
2015-Jul-22 10:33N 63°45' E 011°09'1010.3
2015-Jul-22 09:33N 63°40' E 010°49'10 9.9
2015-Jul-22 08:33N 63°35' E 010°31'1010.0
2015-Jul-22 07:33N 63°30' E 010°11'8 8.3
2015-Jul-22 06:33N 63°32' E 009°53'9 8.6
2015-Jul-22 05:33N 63°39' E 009°43'9 8.8
2015-Jul-22 04:32N 63°35' E 009°26'  
Track history (hours):
 
Tides and Currents Weather Stations Pressure Air Temp Water Temp Dewpoint Dewpoint Depression Visibility Wind Speed Wind Dir Waves Ship Positions

Dart

Last reported at 2015-Jul-29 22:10 UTC. Time now 2015-Jul-30 20:16 UTC.
Position N 63°34' E 009°23'.

Length 66 m; draft 4.1 m.

Type: Tanker. MMSI: 219416000.

Date/timePositionNaut miles runAvg speedWind from/ knotsBaromVisibWave heightAir tempDewpointWater temp
2015-Jul-29 22:10N 63°34' E 009°23'6 9.2
2015-Jul-29 21:33N 63°39' E 009°29'1010.0
2015-Jul-29 20:33N 63°49' E 009°35'10 9.8
2015-Jul-29 19:33N 63°57' E 009°47'9 9.2
2015-Jul-29 18:33N 64°05' E 009°57'47 9.4
2015-Jul-29 13:33N 64°44' E 010°58'1010.2
2015-Jul-29 12:34N 64°51' E 011°15'10 9.9
2015-Jul-29 11:33N 64°60' E 011°28'10 9.8
2015-Jul-29 10:33N 65°05' E 011°47'1010.0
2015-Jul-29 09:33N 65°15' E 011°55'8 0.3
2015-Jul-28 07:21N 65°22' E 012°03'810.1
2015-Jul-28 06:33N 65°14' E 011°55'10 9.5
2015-Jul-28 05:33N 65°05' E 011°47'10 9.6
2015-Jul-28 04:33N 64°58' E 011°33'10 9.9
2015-Jul-28 03:33N 64°52' E 011°15'10 9.6
2015-Jul-28 02:33N 64°45' E 010°59'45 9.0
2015-Jul-27 21:32N 64°11' E 009°49'8 8.6
2015-Jul-27 20:33N 64°03' E 009°47'9 9.4
2015-Jul-27 19:34N 63°54' E 009°46'1010.2
2015-Jul-27 18:33N 63°45' E 009°32'10 9.7
2015-Jul-27 17:33N 63°36' E 009°27'5410.6
2015-Jul-27 12:28N 63°09' E 007°43'203 5.8
2015-Jul-26 01:25N 59°56' E 005°29'8 9.2
2015-Jul-26 00:33N 59°48' E 005°33'8 8.4
2015-Jul-25 23:33N 59°41' E 005°24'9 8.6
2015-Jul-25 22:33N 59°34' E 005°14'8 7.9
2015-Jul-25 21:33N 59°26' E 005°14'9 8.6
2015-Jul-25 20:33N 59°18' E 005°20'5 5.3
2015-Jul-25 19:33N 59°13' E 005°21'8 8.3
2015-Jul-25 18:33N 59°06' E 005°31'8 7.9
2015-Jul-25 17:34N 58°60' E 005°40'0 0.0
2015-Jul-25 16:31N 58°60' E 005°40'0 0.0
2015-Jul-25 15:31N 58°60' E 005°40'3 2.9
2015-Jul-25 14:34N 59°02' E 005°36'7 6.5
2015-Jul-25 13:33N 58°55' E 005°36'0 0.0
2015-Jul-25 12:33N 58°55' E 005°36'0 0.0
2015-Jul-25 11:33N 58°55' E 005°36'0 0.0
2015-Jul-25 10:27N 58°55' E 005°36'0 0.0
2015-Jul-25 09:30N 58°55' E 005°36'0 0.0
2015-Jul-25 08:30N 58°55' E 005°36'0 0.0
2015-Jul-25 07:30N 58°55' E 005°36'0 0.0
2015-Jul-25 06:33N 58°55' E 005°36'1 0.6
2015-Jul-25 05:34N 58°56' E 005°35'5 5.4
2015-Jul-25 04:33N 59°01' E 005°32'6 5.5
2015-Jul-25 03:33N 59°06' E 005°30'6 5.8
2015-Jul-25 02:33N 59°10' E 005°21'8 7.8
2015-Jul-25 01:33N 59°18' E 005°20'8 8.2
2015-Jul-25 00:32N 59°25' E 005°14'8 8.2
2015-Jul-24 23:33N 59°33' E 005°13'8 8.2
2015-Jul-24 22:33N 59°40' E 005°22'8 8.1
2015-Jul-24 21:33N 59°46' E 005°33'9 8.7
2015-Jul-24 20:33N 59°55' E 005°30'245 7.1
2015-Jul-23 10:10N 63°34' E 009°22'6 9.1
2015-Jul-23 09:33N 63°37' E 009°32'7 6.9
2015-Jul-23 08:33N 63°37' E 009°48'1010.0
2015-Jul-23 07:34N 63°29' E 009°60'9 9.1
2015-Jul-23 06:33N 63°32' E 010°19'9 9.5
2015-Jul-23 05:33N 63°37' E 010°37'9 9.3
2015-Jul-23 04:33N 63°42' E 010°54'10 9.6
2015-Jul-23 03:33N 63°46' E 011°14'2 0.1
2015-Jul-22 10:33N 63°45' E 011°09'1010.3
2015-Jul-22 09:33N 63°40' E 010°49'10 9.9
2015-Jul-22 08:33N 63°35' E 010°31'1010.0
2015-Jul-22 07:33N 63°30' E 010°11'8 8.3
2015-Jul-22 06:33N 63°32' E 009°53'9 8.6
2015-Jul-22 05:33N 63°39' E 009°43'9 8.8
2015-Jul-22 04:32N 63°35' E 009°26'  

Dump ship's entire track history